Time;durP1;ratioP1;P1;durP2;ratioP2;P2;SDS_P1;SDS_P2;PMS_P1;PMS_P2;Temp;Humidity;BMP_temperature;BMP_pressure;BME280_temperature;BME280_humidity;BME280_pressure;Samples;Min_cycle;Max_cycle;Signal;HPM_P1;HPM_P2
2023/10/20 00:01:46;;;;;;;0.43;0.38;;;;;;;;;;5092788;28;20036;-80
2023/10/20 00:04:12;;;;;;;0.60;0.50;;;;;;;;;;5092960;28;20032;-79
2023/10/20 00:06:39;;;;;;;3.30;0.75;;;;;;;;;;5092703;28;20382;-79
2023/10/20 00:09:08;;;;;;;0.50;0.50;;;;;;;;;;5091944;28;20040;-80
2023/10/20 00:11:34;;;;;;;0.13;0.13;;;;;;;;;;5092712;28;20071;-79
2023/10/20 00:14:00;;;;;;;0.10;0.10;;;;;;;;;;5074649;28;20071;-79
2023/10/20 00:16:26;;;;;;;0.32;0.32;;;;;;;;;;5092798;28;20092;-79
2023/10/20 00:18:52;;;;;;;15.70;10.85;;;;;;;;;;5092834;28;20032;-81
2023/10/20 00:21:18;;;;;;;0.22;0.22;;;;;;;;;;5092479;28;20104;-79
2023/10/20 00:23:44;;;;;;;0.55;0.55;;;;;;;;;;5092799;28;20028;-80
2023/10/20 00:26:09;;;;;;;0.10;0.10;;;;;;;;;;5092775;28;20020;-82
2023/10/20 00:28:35;;;;;;;0.20;0.20;;;;;;;;;;5092773;28;20028;-83
2023/10/20 00:31:01;;;;;;;3.63;1.35;;;;;;;;;;5092348;28;20596;-83
2023/10/20 00:33:26;;;;;;;0.30;0.30;;;;;;;;;;5092689;28;20043;-84
2023/10/20 00:35:52;;;;;;;0.30;0.30;;;;;;;;;;5092223;28;20123;-81
2023/10/20 00:38:18;;;;;;;4.50;1.05;;;;;;;;;;5091366;28;20066;-81
2023/10/20 00:40:45;;;;;;;0.20;0.20;;;;;;;;;;5092190;28;20040;-81
2023/10/20 00:43:11;;;;;;;7.03;1.65;;;;;;;;;;5091498;28;20024;-82
2023/10/20 00:45:37;;;;;;;0.15;0.15;;;;;;;;;;5091763;28;20107;-81
2023/10/20 00:48:10;;;;;;;2.38;2.17;;;;;;;;;;5092215;28;20036;-81
2023/10/20 00:50:36;;;;;;;4.70;1.77;;;;;;;;;;5092441;28;20040;-81
2023/10/20 00:53:02;;;;;;;3.40;2.15;;;;;;;;;;5074431;28;20051;-80
2023/10/20 00:55:30;;;;;;;0.30;0.30;;;;;;;;;;5092349;28;20111;-79
2023/10/20 00:57:57;;;;;;;0.52;0.45;;;;;;;;;;5074167;28;20069;-79
2023/10/20 01:00:22;;;;;;;2.65;1.85;;;;;;;;;;5073302;28;20044;-80
2023/10/20 01:02:48;;;;;;;3.13;1.17;;;;;;;;;;5072000;28;20044;-79
2023/10/20 01:05:22;;;;;;;1.20;0.77;;;;;;;;;;5037602;28;20040;-79
2023/10/20 01:07:48;;;;;;;6.55;1.50;;;;;;;;;;5051470;28;20037;-80
2023/10/20 01:10:14;;;;;;;23.25;3.38;;;;;;;;;;5071891;28;20036;-79
2023/10/20 01:12:40;;;;;;;5.53;2.72;;;;;;;;;;5071688;28;20506;-79
2023/10/20 01:15:06;;;;;;;4.45;1.63;;;;;;;;;;5054041;28;20040;-78
2023/10/20 01:17:32;;;;;;;1.15;1.05;;;;;;;;;;5052479;28;20488;-77
2023/10/20 01:20:04;;;;;;;2.58;1.30;;;;;;;;;;5069736;28;20036;-78
2023/10/20 01:22:30;;;;;;;7.03;1.58;;;;;;;;;;5069732;28;20028;-77
2023/10/20 01:24:56;;;;;;;6.32;3.60;;;;;;;;;;5069616;28;20032;-78
2023/10/20 01:27:21;;;;;;;5.95;2.65;;;;;;;;;;5069577;28;20021;-79
2023/10/20 01:29:47;;;;;;;4.40;1.48;;;;;;;;;;5069294;28;20047;-79
2023/10/20 01:32:13;;;;;;;0.20;0.20;;;;;;;;;;5070385;28;20047;-79
2023/10/20 01:34:39;;;;;;;1.88;0.55;;;;;;;;;;5053793;28;20046;-80
2023/10/20 01:37:04;;;;;;;0.17;0.17;;;;;;;;;;5071436;28;20032;-80
2023/10/20 01:39:30;;;;;;;3.60;1.23;;;;;;;;;;5071506;28;20036;-80
2023/10/20 01:41:56;;;;;;;0.30;0.30;;;;;;;;;;5055231;28;20434;-81
2023/10/20 01:44:22;;;;;;;0.20;0.20;;;;;;;;;;5075088;28;20040;-80
2023/10/20 01:46:50;;;;;;;8.32;7.53;;;;;;;;;;5056746;28;20021;-80
2023/10/20 01:49:17;;;;;;;0.27;0.27;;;;;;;;;;5075175;28;20036;-79
2023/10/20 01:51:43;;;;;;;0.20;0.20;;;;;;;;;;5074931;28;20506;-79
2023/10/20 01:54:08;;;;;;;0.20;0.20;;;;;;;;;;5075022;28;20041;-82
2023/10/20 01:56:34;;;;;;;0.10;0.10;;;;;;;;;;5074659;28;20040;-80
2023/10/20 01:59:01;;;;;;;0.10;0.10;;;;;;;;;;5074263;28;20099;-80
2023/10/20 02:01:27;;;;;;;0.20;0.20;;;;;;;;;;5092440;28;20120;-80
2023/10/20 02:03:53;;;;;;;0.20;0.20;;;;;;;;;;5094779;28;20040;-79
2023/10/20 02:06:18;;;;;;;0.15;0.15;;;;;;;;;;5094640;28;20043;-79
2023/10/20 02:08:44;;;;;;;0.20;0.20;;;;;;;;;;5094436;28;20034;-78
2023/10/20 02:11:10;;;;;;;0.20;0.20;;;;;;;;;;5094739;28;20028;-79
2023/10/20 02:13:36;;;;;;;0.20;0.20;;;;;;;;;;5094255;28;20044;-79
2023/10/20 02:16:04;;;;;;;0.10;0.10;;;;;;;;;;5094532;28;20072;-80
2023/10/20 02:18:30;;;;;;;0.20;0.20;;;;;;;;;;5076586;28;20036;-80
2023/10/20 02:20:58;;;;;;;0.10;0.10;;;;;;;;;;5076759;28;20455;-82
2023/10/20 02:23:25;;;;;;;0.10;0.10;;;;;;;;;;5076441;28;20491;-82
2023/10/20 02:26:00;;;;;;;0.10;0.10;;;;;;;;;;5094749;28;20043;-79
2023/10/20 02:28:26;;;;;;;0.20;0.20;;;;;;;;;;5094541;28;20040;-79
2023/10/20 02:30:56;;;;;;;0.10;0.10;;;;;;;;;;5094661;28;20077;-79
2023/10/20 02:33:22;;;;;;;0.20;0.20;;;;;;;;;;5076237;28;20036;-80
2023/10/20 02:35:49;;;;;;;0.10;0.10;;;;;;;;;;5076135;28;20035;-82
2023/10/20 02:38:15;;;;;;;0.20;0.20;;;;;;;;;;5076794;28;20032;-78
2023/10/20 02:40:48;;;;;;;0.10;0.10;;;;;;;;;;5076201;28;20400;-79
2023/10/20 02:43:14;;;;;;;0.10;0.10;;;;;;;;;;5094483;28;20028;-80
2023/10/20 02:45:46;;;;;;;0.30;0.30;;;;;;;;;;5092726;28;20035;-78
2023/10/20 02:48:11;;;;;;;0.20;0.20;;;;;;;;;;5074624;28;20036;-77
2023/10/20 02:50:38;;;;;;;0.40;0.40;;;;;;;;;;5091931;28;20589;-78
2023/10/20 02:53:04;;;;;;;0.20;0.20;;;;;;;;;;5073565;28;20047;-76
2023/10/20 02:55:30;;;;;;;8.15;2.40;;;;;;;;;;5073678;28;20028;-76
2023/10/20 02:57:55;;;;;;;2.00;1.85;;;;;;;;;;5073840;28;20479;-78
2023/10/20 03:00:21;;;;;;;0.20;0.20;;;;;;;;;;5092362;28;20032;-78
2023/10/20 03:02:48;;;;;;;0.20;0.20;;;;;;;;;;5088498;28;20047;-78
2023/10/20 03:05:15;;;;;;;0.10;0.10;;;;;;;;;;5089155;28;20111;-78
2023/10/20 03:07:41;;;;;;;0.10;0.10;;;;;;;;;;5072085;28;20123;-77
2023/10/20 03:10:35;;;;;;;0.28;0.28;;;;;;;;;;5089974;28;20104;-78
2023/10/20 03:13:01;;;;;;;0.20;0.20;;;;;;;;;;5071736;28;20399;-77
2023/10/20 03:15:28;;;;;;;0.10;0.10;;;;;;;;;;5089755;28;20062;-74
2023/10/20 03:17:54;;;;;;;0.20;0.20;;;;;;;;;;5089566;28;20089;-79
2023/10/20 03:20:28;;;;;;;0.30;0.30;;;;;;;;;;5089784;28;20036;-78
2023/10/20 03:23:31;;;;;;;0.10;0.10;;;;;;;;;;5086744;28;20503;-78
2023/10/20 03:25:57;;;;;;;0.10;0.10;;;;;;;;;;5086263;28;20020;-81
2023/10/20 03:28:25;;;;;;;0.20;0.20;;;;;;;;;;5071237;28;20051;-79
2023/10/20 03:30:51;;;;;;;0.10;0.10;;;;;;;;;;5089225;28;20512;-81
2023/10/20 03:33:17;;;;;;;0.10;0.10;;;;;;;;;;5087669;28;20044;-79
2023/10/20 03:35:43;;;;;;;0.10;0.10;;;;;;;;;;5087395;28;20057;-79
2023/10/20 03:38:09;;;;;;;0.10;0.10;;;;;;;;;;5087677;28;20521;-79
2023/10/20 03:40:40;;;;;;;0.20;0.20;;;;;;;;;;5087497;28;20103;-81
2023/10/20 03:43:08;;;;;;;0.20;0.20;;;;;;;;;;5089406;28;20032;-81
2023/10/20 03:45:41;;;;;;;0.20;0.20;;;;;;;;;;5090265;28;20089;-80
2023/10/20 03:48:09;;;;;;;0.20;0.20;;;;;;;;;;5071304;28;20038;-81
2023/10/20 03:50:37;;;;;;;0.40;0.40;;;;;;;;;;5088494;28;20063;-82
2023/10/20 03:53:04;;;;;;;0.20;0.20;;;;;;;;;;5089208;28;20040;-83
2023/10/20 03:55:30;;;;;;;0.10;0.10;;;;;;;;;;5089267;28;20032;-78
2023/10/20 03:57:56;;;;;;;0.10;0.10;;;;;;;;;;5088980;28;20092;-78
2023/10/20 04:00:28;;;;;;;0.10;0.10;;;;;;;;;;5087989;28;20502;-76
2023/10/20 04:02:56;;;;;;;0.10;0.10;;;;;;;;;;5089300;28;20547;-81
2023/10/20 04:05:23;;;;;;;0.20;0.20;;;;;;;;;;5070278;28;20077;-78
2023/10/20 04:07:50;;;;;;;0.10;0.10;;;;;;;;;;5088796;28;20036;-79
2023/10/20 04:10:18;;;;;;;0.20;0.20;;;;;;;;;;5089461;28;20027;-79
2023/10/20 04:12:44;;;;;;;0.90;0.75;;;;;;;;;;5088270;28;20539;-77
2023/10/20 04:15:19;;;;;;;0.28;0.28;;;;;;;;;;5089098;28;20116;-78
2023/10/20 04:17:52;;;;;;;0.20;0.20;;;;;;;;;;5089487;28;20040;-77
2023/10/20 04:20:21;;;;;;;0.20;0.20;;;;;;;;;;5087740;28;20387;-79
2023/10/20 04:22:50;;;;;;;0.52;0.52;;;;;;;;;;5088705;28;20074;-79
2023/10/20 04:25:17;;;;;;;0.22;0.22;;;;;;;;;;5088947;28;20059;-78
2023/10/20 04:28:08;;;;;;;0.10;0.10;;;;;;;;;;5088731;28;20036;-77
2023/10/20 04:52:55;;;;;;;0.20;0.20;;;;;;;;;;5069018;28;20028;-79
2023/10/20 04:57:53;;;;;;;0.10;0.10;;;;;;;;;;5088372;28;20043;-80
2023/10/20 05:08:05;;;;;;;0.10;0.10;;;;;;;;;;5067604;28;20032;-80
2023/10/20 05:10:31;;;;;;;0.20;0.20;;;;;;;;;;5060602;28;20063;-81
2023/10/20 05:12:57;;;;;;;0.20;0.20;;;;;;;;;;5046435;28;20028;-77
2023/10/20 05:15:23;;;;;;;0.10;0.10;;;;;;;;;;5067576;28;20040;-79
2023/10/20 05:17:52;;;;;;;0.55;0.40;;;;;;;;;;5052317;28;20400;-80
2023/10/20 05:20:20;;;;;;;0.15;0.15;;;;;;;;;;5071444;28;20028;-78
2023/10/20 05:22:46;;;;;;;0.20;0.20;;;;;;;;;;5054841;28;20036;-77
2023/10/20 05:25:12;;;;;;;0.20;0.20;;;;;;;;;;5071587;28;20491;-78
2023/10/20 05:27:38;;;;;;;0.10;0.10;;;;;;;;;;5089452;28;20036;-77
2023/10/20 05:30:04;;;;;;;5.60;0.73;;;;;;;;;;5089760;28;20036;-79
2023/10/20 05:32:33;;;;;;;3.00;1.30;;;;;;;;;;5079245;28;20110;-79
2023/10/20 05:35:00;;;;;;;0.10;0.10;;;;;;;;;;5069005;28;20112;-77
2023/10/20 05:37:34;;;;;;;0.10;0.10;;;;;;;;;;5078137;28;20038;-79
2023/10/20 05:40:09;;;;;;;0.20;0.20;;;;;;;;;;5065132;28;20503;-76
2023/10/20 05:42:35;;;;;;;0.20;0.20;;;;;;;;;;5084749;28;20020;-73
2023/10/20 05:45:10;;;;;;;0.10;0.10;;;;;;;;;;5088062;28;20103;-75
2023/10/20 05:47:37;;;;;;;0.20;0.20;;;;;;;;;;5088263;28;20036;-77
2023/10/20 05:50:04;;;;;;;0.20;0.20;;;;;;;;;;5086171;28;20043;-76
2023/10/20 05:52:30;;;;;;;0.10;0.10;;;;;;;;;;5074459;28;20091;-83
2023/10/20 05:54:57;;;;;;;0.20;0.20;;;;;;;;;;5077671;28;20074;-79
2023/10/20 05:57:23;;;;;;;0.10;0.10;;;;;;;;;;5070238;28;20035;-80
2023/10/20 05:59:50;;;;;;;0.20;0.20;;;;;;;;;;5085387;28;20453;-79
2023/10/20 06:02:16;;;;;;;0.20;0.20;;;;;;;;;;5080517;28;20818;-74
2023/10/20 06:04:42;;;;;;;0.63;0.63;;;;;;;;;;5077271;28;20039;-75
2023/10/20 06:07:07;;;;;;;0.20;0.20;;;;;;;;;;5075520;28;20066;-76
2023/10/20 06:09:33;;;;;;;0.20;0.20;;;;;;;;;;5072181;28;20020;-74
2023/10/20 06:11:59;;;;;;;0.20;0.20;;;;;;;;;;5082846;28;20494;-74
2023/10/20 06:14:25;;;;;;;0.20;0.20;;;;;;;;;;5069419;28;20758;-74
2023/10/20 06:16:54;;;;;;;0.20;0.20;;;;;;;;;;5090441;28;20089;-74
2023/10/20 06:19:21;;;;;;;0.88;0.55;;;;;;;;;;5089976;28;20433;-75
2023/10/20 06:21:47;;;;;;;0.77;0.20;;;;;;;;;;5089615;28;20119;-76
2023/10/20 06:24:14;;;;;;;0.20;0.20;;;;;;;;;;5087467;28;20036;-78
2023/10/20 06:26:40;;;;;;;8.40;1.55;;;;;;;;;;5088875;28;20143;-76
2023/10/20 06:29:26;;;;;;;1.60;1.52;;;;;;;;;;5080907;28;20074;-76
2023/10/20 06:32:08;;;;;;;0.20;0.20;;;;;;;;;;5072609;28;20040;-76
2023/10/20 06:34:35;;;;;;;0.10;0.10;;;;;;;;;;5068106;28;20059;-76
2023/10/20 06:37:18;;;;;;;0.20;0.20;;;;;;;;;;5066959;28;20080;-76
2023/10/20 06:39:44;;;;;;;9.18;2.08;;;;;;;;;;5067307;28;20037;-77
2023/10/20 06:42:10;;;;;;;8.32;1.58;;;;;;;;;;5067140;28;20507;-76
2023/10/20 06:44:36;;;;;;;2.15;2.00;;;;;;;;;;5068103;28;20187;-76
2023/10/20 06:47:01;;;;;;;0.85;0.35;;;;;;;;;;5083913;28;20095;-76
2023/10/20 06:49:28;;;;;;;0.22;0.22;;;;;;;;;;5088953;28;20024;-77
2023/10/20 06:51:54;;;;;;;8.48;2.20;;;;;;;;;;5089536;28;20067;-74
2023/10/20 06:54:20;;;;;;;2.20;1.30;;;;;;;;;;5089289;28;20036;-74
2023/10/20 06:56:46;;;;;;;10.88;1.90;;;;;;;;;;5089669;28;20043;-75
2023/10/20 06:59:15;;;;;;;18.52;1.27;;;;;;;;;;5089504;28;20028;-74
2023/10/20 07:01:41;;;;;;;9.55;1.85;;;;;;;;;;5090059;28;20430;-75
2023/10/20 07:04:08;;;;;;;11.23;3.03;;;;;;;;;;5071666;28;20036;-75
2023/10/20 07:06:34;;;;;;;6.03;1.48;;;;;;;;;;5088350;28;20422;-76
2023/10/20 07:09:00;;;;;;;1.85;1.10;;;;;;;;;;5089016;28;20032;-76
2023/10/20 07:11:27;;;;;;;6.53;2.60;;;;;;;;;;5089104;28;20077;-75
2023/10/20 07:13:52;;;;;;;6.40;1.90;;;;;;;;;;5089144;28;20124;-74
2023/10/20 07:16:18;;;;;;;8.35;4.47;;;;;;;;;;5089220;28;20122;-74
2023/10/20 07:18:44;;;;;;;5.35;1.70;;;;;;;;;;5089161;28;20046;-74
2023/10/20 07:21:09;;;;;;;4.43;4.00;;;;;;;;;;5089024;28;20028;-77
2023/10/20 07:23:35;;;;;;;3.88;2.22;;;;;;;;;;5089231;28;20036;-75
2023/10/20 07:26:01;;;;;;;6.85;3.17;;;;;;;;;;5089292;28;20089;-76
2023/10/20 07:28:27;;;;;;;5.10;1.13;;;;;;;;;;5088709;28;20470;-75
2023/10/20 07:30:53;;;;;;;0.40;0.40;;;;;;;;;;5070923;28;20535;-74
2023/10/20 07:33:19;;;;;;;1.80;1.27;;;;;;;;;;5089132;28;20044;-75
2023/10/20 07:35:44;;;;;;;1.73;0.57;;;;;;;;;;5088198;28;20136;-73
2023/10/20 07:38:12;;;;;;;0.73;0.73;;;;;;;;;;5088862;28;20181;-75
2023/10/20 07:40:38;;;;;;;6.90;1.92;;;;;;;;;;5085366;28;20103;-73
2023/10/20 07:43:06;;;;;;;11.70;2.22;;;;;;;;;;5062469;28;20115;-74
2023/10/20 07:45:40;;;;;;;25.20;4.47;;;;;;;;;;5070554;28;20042;-74
2023/10/20 07:48:06;;;;;;;0.15;0.15;;;;;;;;;;5071123;28;20399;-74
2023/10/20 07:50:31;;;;;;;3.03;2.83;;;;;;;;;;5070194;28;20038;-74
2023/10/20 07:52:57;;;;;;;7.28;1.85;;;;;;;;;;5083805;28;20024;-76
2023/10/20 07:55:22;;;;;;;4.65;2.05;;;;;;;;;;5084758;28;20408;-75
2023/10/20 07:57:48;;;;;;;4.85;1.10;;;;;;;;;;5060164;28;20028;-73
2023/10/20 08:00:14;;;;;;;0.20;0.20;;;;;;;;;;5068425;28;20056;-74
2023/10/20 08:02:41;;;;;;;7.97;2.03;;;;;;;;;;5061783;28;20032;-75
2023/10/20 08:05:08;;;;;;;23.13;2.67;;;;;;;;;;5077554;28;20036;-75
2023/10/20 08:07:33;;;;;;;7.20;1.95;;;;;;;;;;5068573;28;20032;-77
2023/10/20 08:09:59;;;;;;;11.98;2.58;;;;;;;;;;5069938;28;20036;-75
2023/10/20 08:12:25;;;;;;;12.38;2.95;;;;;;;;;;5088380;28;20038;-75
2023/10/20 08:14:50;;;;;;;13.25;2.78;;;;;;;;;;5088433;28;20042;-75
2023/10/20 08:17:16;;;;;;;10.65;2.08;;;;;;;;;;5085823;28;20146;-75
2023/10/20 08:19:45;;;;;;;11.82;3.05;;;;;;;;;;5079222;28;20221;-73
2023/10/20 08:22:11;;;;;;;14.50;2.35;;;;;;;;;;5088489;28;20036;-74
2023/10/20 08:24:37;;;;;;;6.90;1.60;;;;;;;;;;5088266;28;20039;-75
2023/10/20 08:27:02;;;;;;;6.13;1.65;;;;;;;;;;5088016;28;20099;-75
2023/10/20 08:29:28;;;;;;;3.42;0.40;;;;;;;;;;5070351;28;20089;-75
2023/10/20 08:31:54;;;;;;;10.10;2.47;;;;;;;;;;5088450;28;20596;-75
2023/10/20 08:34:20;;;;;;;4.35;0.98;;;;;;;;;;5086563;28;20483;-74
2023/10/20 08:36:46;;;;;;;19.17;1.92;;;;;;;;;;5068915;28;20057;-75
2023/10/20 08:39:19;;;;;;;14.60;1.63;;;;;;;;;;5086441;28;20032;-77
2023/10/20 08:41:45;;;;;;;9.32;1.98;;;;;;;;;;5087320;28;20472;-74
2023/10/20 08:44:11;;;;;;;9.93;1.67;;;;;;;;;;5086725;28;20036;-76
2023/10/20 08:46:38;;;;;;;10.35;2.90;;;;;;;;;;5045875;28;20024;-75
2023/10/20 08:49:05;;;;;;;8.65;2.58;;;;;;;;;;5085560;28;20036;-73
2023/10/20 08:51:31;;;;;;;11.65;3.25;;;;;;;;;;5076411;28;20115;-75
2023/10/20 08:53:56;;;;;;;24.15;3.40;;;;;;;;;;5086454;28;20531;-74
2023/10/20 08:56:22;;;;;;;7.15;1.65;;;;;;;;;;5090064;28;20036;-73
2023/10/20 08:58:48;;;;;;;13.32;2.17;;;;;;;;;;5072004;28;20040;-73
2023/10/20 09:01:14;;;;;;;4.63;1.23;;;;;;;;;;5089114;28;20036;-74
2023/10/20 09:03:44;;;;;;;1.65;1.40;;;;;;;;;;5087462;28;20268;-73
2023/10/20 09:06:14;;;;;;;11.65;2.38;;;;;;;;;;5088197;28;20034;-74
2023/10/20 09:08:40;;;;;;;6.28;1.80;;;;;;;;;;5067989;28;20392;-73
2023/10/20 09:11:09;;;;;;;6.15;2.33;;;;;;;;;;5068351;28;20479;-74
2023/10/20 09:13:37;;;;;;;2.25;1.33;;;;;;;;;;5084376;28;20060;-74
2023/10/20 09:16:07;;;;;;;19.03;2.70;;;;;;;;;;5088057;28;20126;-73
2023/10/20 09:18:45;;;;;;;28.95;2.10;;;;;;;;;;5070984;28;20133;-82
2023/10/20 09:21:15;;;;;;;12.85;2.05;;;;;;;;;;5090463;28;20122;-75
2023/10/20 09:23:52;;;;;;;3.47;1.38;;;;;;;;;;5055164;28;20387;-74
2023/10/20 09:26:17;;;;;;;10.55;2.88;;;;;;;;;;5089584;28;20032;-74
2023/10/20 09:28:46;;;;;;;7.70;2.30;;;;;;;;;;5085231;28;20081;-75
2023/10/20 09:31:12;;;;;;;12.95;3.92;;;;;;;;;;5087544;28;20112;-74
2023/10/20 09:33:40;;;;;;;1.77;0.93;;;;;;;;;;5089649;28;20074;-74
2023/10/20 09:36:06;;;;;;;16.55;4.32;;;;;;;;;;5089693;28;20036;-74
2023/10/20 09:38:32;;;;;;;13.55;1.35;;;;;;;;;;5088514;28;20034;-74
2023/10/20 09:41:03;;;;;;;7.95;1.45;;;;;;;;;;5088463;28;20028;-74
2023/10/20 09:43:36;;;;;;;11.30;1.38;;;;;;;;;;5072198;28;20078;-73
2023/10/20 09:46:14;;;;;;;19.75;3.25;;;;;;;;;;5087937;28;20028;-74
2023/10/20 09:48:41;;;;;;;9.30;1.67;;;;;;;;;;5084787;28;20406;-74
2023/10/20 09:51:08;;;;;;;10.23;2.65;;;;;;;;;;5088485;28;20344;-75
2023/10/20 09:53:34;;;;;;;17.48;3.17;;;;;;;;;;5079378;28;20028;-75
2023/10/20 09:56:01;;;;;;;13.73;2.45;;;;;;;;;;5069768;28;20032;-76
2023/10/20 09:58:26;;;;;;;14.25;2.58;;;;;;;;;;5069227;28;20103;-71
2023/10/20 10:00:54;;;;;;;15.63;3.03;;;;;;;;;;5080344;28;20613;-74
2023/10/20 10:03:29;;;;;;;21.30;3.35;;;;;;;;;;5066381;28;20047;-74
2023/10/20 10:05:56;;;;;;;16.50;2.92;;;;;;;;;;5087408;28;20524;-74
2023/10/20 10:08:21;;;;;;;4.32;1.40;;;;;;;;;;5064070;28;20388;-75
2023/10/20 10:10:49;;;;;;;15.82;2.90;;;;;;;;;;5084052;28;20032;-74
2023/10/20 10:13:14;;;;;;;14.13;1.38;;;;;;;;;;5082258;28;20028;-74
2023/10/20 10:15:41;;;;;;;6.00;1.80;;;;;;;;;;5083275;28;20032;-75
2023/10/20 10:18:09;;;;;;;17.67;4.20;;;;;;;;;;5077261;28;20028;-74
2023/10/20 10:20:40;;;;;;;17.10;2.80;;;;;;;;;;5071048;28;20103;-75
2023/10/20 10:23:06;;;;;;;12.55;3.08;;;;;;;;;;5080642;28;20044;-74
2023/10/20 10:25:39;;;;;;;10.75;2.28;;;;;;;;;;5086286;28;20066;-74
2023/10/20 10:28:18;;;;;;;2.63;2.42;;;;;;;;;;5082635;28;20173;-73
2023/10/20 10:30:47;;;;;;;32.85;7.80;;;;;;;;;;5089221;28;20043;-74
2023/10/20 10:33:12;;;;;;;;;;;;;;;;;;5089270;28;20106;-74
2023/10/20 10:35:39;;;;;;;11.30;3.42;;;;;;;;;;5062862;28;19916;-74
2023/10/20 10:38:06;;;;;;;14.05;2.63;;;;;;;;;;5078681;28;20032;-74
2023/10/20 10:40:32;;;;;;;17.88;3.85;;;;;;;;;;5068664;28;20032;-72
2023/10/20 10:42:57;;;;;;;26.90;5.38;;;;;;;;;;5068647;28;20373;-74
2023/10/20 10:45:27;;;;;;;9.10;2.30;;;;;;;;;;5083418;28;20032;-73
2023/10/20 10:47:52;;;;;;;;;;;;;;;;;;5087487;28;20170;-73
2023/10/20 10:50:20;;;;;;;1.95;0.90;;;;;;;;;;5084334;28;20007;-74
2023/10/20 10:52:46;;;;;;;4.85;1.70;;;;;;;;;;5087914;28;20357;-76
2023/10/20 10:55:13;;;;;;;23.35;3.75;;;;;;;;;;5088944;28;20030;-74
2023/10/20 10:57:39;;;;;;;14.95;2.92;;;;;;;;;;5088617;28;20432;-73
2023/10/20 11:00:06;;;;;;;5.28;0.93;;;;;;;;;;5088102;28;20036;-75
2023/10/20 11:02:32;;;;;;;10.93;2.65;;;;;;;;;;5068935;28;20074;-75
2023/10/20 11:04:58;;;;;;;17.58;3.60;;;;;;;;;;5086934;28;20031;-74
2023/10/20 11:07:23;;;;;;;18.20;3.45;;;;;;;;;;5085000;28;20029;-73
2023/10/20 11:09:51;;;;;;;14.60;2.72;;;;;;;;;;5086606;28;20047;-74
2023/10/20 11:12:17;;;;;;;11.45;2.25;;;;;;;;;;5087907;28;20470;-74
2023/10/20 11:14:42;;;;;;;11.20;2.72;;;;;;;;;;5086654;28;20129;-74
2023/10/20 11:17:08;;;;;;;19.33;3.83;;;;;;;;;;5087632;28;20047;-73
2023/10/20 11:19:34;;;;;;;15.70;3.95;;;;;;;;;;5088229;28;20028;-73
2023/10/20 11:21:59;;;;;;;23.52;5.72;;;;;;;;;;5088182;28;20031;-74
2023/10/20 11:24:26;;;;;;;24.60;4.97;;;;;;;;;;5087479;28;20024;-73
2023/10/20 11:26:56;;;;;;;26.15;5.00;;;;;;;;;;5088598;28;20040;-74
2023/10/20 11:29:22;;;;;;;2.95;1.20;;;;;;;;;;5087601;28;20132;-73
2023/10/20 11:31:48;;;;;;;7.10;3.75;;;;;;;;;;5081641;28;20119;-74
2023/10/20 11:34:14;;;;;;;12.68;2.40;;;;;;;;;;5072147;28;20032;-76
2023/10/20 11:36:40;;;;;;;7.15;1.52;;;;;;;;;;5085175;28;20435;-74
2023/10/20 11:39:06;;;;;;;6.60;0.98;;;;;;;;;;5081588;28;20076;-75
2023/10/20 11:41:32;;;;;;;14.27;4.28;;;;;;;;;;5088102;28;20456;-75
2023/10/20 11:43:58;;;;;;;11.15;3.05;;;;;;;;;;5088070;28;20621;-73
2023/10/20 11:46:24;;;;;;;17.10;4.25;;;;;;;;;;5085002;28;20123;-74
2023/10/20 11:48:49;;;;;;;8.10;2.05;;;;;;;;;;5069584;28;20146;-75
2023/10/20 11:51:15;;;;;;;17.83;3.17;;;;;;;;;;5087804;28;20084;-74
2023/10/20 11:53:40;;;;;;;11.32;1.95;;;;;;;;;;5085183;28;20036;-74
2023/10/20 11:56:06;;;;;;;8.25;2.30;;;;;;;;;;5076536;28;20043;-74
2023/10/20 11:58:33;;;;;;;25.63;4.65;;;;;;;;;;5087536;28;20036;-74
2023/10/20 12:00:58;;;;;;;10.05;2.72;;;;;;;;;;5077375;28;20044;-74
2023/10/20 12:03:24;;;;;;;12.88;2.63;;;;;;;;;;5074817;28;20114;-74
2023/10/20 12:05:51;;;;;;;21.88;3.72;;;;;;;;;;5072241;28;20798;-75
2023/10/20 12:08:17;;;;;;;12.88;4.70;;;;;;;;;;5068685;28;20054;-75
2023/10/20 12:10:43;;;;;;;15.65;3.00;;;;;;;;;;5086209;28;20391;-74
2023/10/20 12:13:09;;;;;;;17.48;3.25;;;;;;;;;;5059100;28;20039;-74
2023/10/20 12:15:36;;;;;;;19.40;3.70;;;;;;;;;;5064391;28;20039;-75
2023/10/20 12:18:01;;;;;;;12.98;3.22;;;;;;;;;;5067284;28;20068;-75
2023/10/20 12:20:27;;;;;;;2.50;0.68;;;;;;;;;;5066673;28;20067;-75
2023/10/20 12:22:58;;;;;;;11.98;3.70;;;;;;;;;;5082957;28;20039;-73
2023/10/20 12:25:25;;;;;;;20.08;2.80;;;;;;;;;;5085694;28;20123;-74
2023/10/20 12:27:51;;;;;;;20.05;2.67;;;;;;;;;;5079834;28;20047;-74
2023/10/20 12:30:16;;;;;;;18.80;4.43;;;;;;;;;;5082955;28;20036;-74
2023/10/20 12:32:43;;;;;;;20.60;3.35;;;;;;;;;;5074994;28;20509;-74
2023/10/20 12:35:11;;;;;;;6.45;3.17;;;;;;;;;;5077101;28;20106;-74
2023/10/20 12:37:39;;;;;;;1.88;1.52;;;;;;;;;;5075895;28;20055;-74
2023/10/20 12:40:05;;;;;;;7.13;2.13;;;;;;;;;;5050968;28;20765;-73
2023/10/20 12:42:35;;;;;;;11.55;0.88;;;;;;;;;;5087212;28;20067;-74
2023/10/20 12:45:03;;;;;;;11.43;3.78;;;;;;;;;;5087237;28;20036;-74
2023/10/20 12:47:32;;;;;;;10.05;1.67;;;;;;;;;;5087171;28;20040;-74
2023/10/20 12:49:58;;;;;;;4.40;2.00;;;;;;;;;;5086569;28;20038;-74
2023/10/20 12:52:23;;;;;;;1.90;0.77;;;;;;;;;;5068151;28;20119;-73
2023/10/20 12:54:51;;;;;;;37.63;3.20;;;;;;;;;;5087325;28;20066;-73
2023/10/20 12:57:16;;;;;;;3.03;0.82;;;;;;;;;;5086328;28;20036;-75
2023/10/20 12:59:43;;;;;;;5.25;1.70;;;;;;;;;;5066219;28;20451;-73
2023/10/20 13:02:09;;;;;;;3.53;1.17;;;;;;;;;;5078114;28;20036;-73
2023/10/20 13:04:35;;;;;;;0.35;0.30;;;;;;;;;;5086925;28;20040;-74
2023/10/20 13:07:02;;;;;;;30.88;2.15;;;;;;;;;;5080745;28;20040;-75
2023/10/20 13:09:28;;;;;;;12.02;2.88;;;;;;;;;;5066907;28;20091;-74
2023/10/20 13:11:56;;;;;;;10.73;3.22;;;;;;;;;;5066579;28;20044;-74
2023/10/20 13:14:22;;;;;;;12.05;1.77;;;;;;;;;;5066079;28;20058;-74
2023/10/20 13:16:50;;;;;;;7.95;1.83;;;;;;;;;;5073045;28;20028;-73
2023/10/20 13:19:18;;;;;;;15.10;3.10;;;;;;;;;;5086742;28;20032;-74
2023/10/20 13:21:44;;;;;;;9.10;2.75;;;;;;;;;;5083812;28;20032;-73
2023/10/20 13:24:09;;;;;;;9.23;2.22;;;;;;;;;;5065812;28;20047;-73
2023/10/20 13:26:39;;;;;;;13.02;3.70;;;;;;;;;;5082240;28;20457;-74
2023/10/20 13:29:05;;;;;;;6.45;1.63;;;;;;;;;;5086199;28;20503;-74
2023/10/20 13:31:36;;;;;;;2.58;1.42;;;;;;;;;;5086123;28;20398;-73
2023/10/20 13:34:02;;;;;;;11.00;2.90;;;;;;;;;;5085595;28;20054;-73
2023/10/20 13:36:28;;;;;;;13.82;4.93;;;;;;;;;;5083317;28;20036;-74
2023/10/20 13:38:53;;;;;;;36.90;5.43;;;;;;;;;;5087651;28;20039;-83
2023/10/20 13:41:20;;;;;;;4.80;3.90;;;;;;;;;;5088580;28;20037;-77
2023/10/20 13:43:46;;;;;;;1.35;0.82;;;;;;;;;;5053784;28;20035;-85
2023/10/20 13:46:11;;;;;;;42.58;4.47;;;;;;;;;;5088235;28;20073;-84
2023/10/20 13:48:37;;;;;;;16.30;4.25;;;;;;;;;;5069628;28;20036;-82
2023/10/20 13:51:03;;;;;;;20.15;3.83;;;;;;;;;;5087761;28;20043;-82
2023/10/20 13:53:28;;;;;;;4.60;2.78;;;;;;;;;;5087943;28;20369;-83
2023/10/20 13:55:54;;;;;;;19.77;2.70;;;;;;;;;;5088500;28;20032;-84
2023/10/20 13:58:21;;;;;;;7.93;2.03;;;;;;;;;;5070306;28;20391;-83
2023/10/20 14:00:47;;;;;;;21.45;5.07;;;;;;;;;;5087569;28;20092;-81
2023/10/20 14:03:13;;;;;;;26.35;4.85;;;;;;;;;;5061979;28;20395;-79
2023/10/20 14:05:39;;;;;;;25.83;3.92;;;;;;;;;;5082061;28;20028;-82
2023/10/20 14:08:04;;;;;;;6.53;2.70;;;;;;;;;;5088234;28;20028;-81
2023/10/20 14:10:31;;;;;;;20.35;3.38;;;;;;;;;;5086986;28;20031;-82
2023/10/20 14:12:57;;;;;;;33.40;3.80;;;;;;;;;;5086453;28;20035;-78
2023/10/20 14:15:23;;;;;;;9.75;2.63;;;;;;;;;;5086921;28;20028;-81
2023/10/20 14:17:48;;;;;;;10.35;1.77;;;;;;;;;;5087380;28;20085;-78
2023/10/20 14:20:15;;;;;;;24.27;4.20;;;;;;;;;;5086161;28;20028;-81
2023/10/20 14:22:40;;;;;;;20.60;3.17;;;;;;;;;;5085544;28;20032;-78
2023/10/20 14:25:06;;;;;;;12.95;2.40;;;;;;;;;;5081648;28;20040;-82
2023/10/20 14:27:36;;;;;;;16.05;3.17;;;;;;;;;;5088137;28;20032;-81
2023/10/20 14:30:02;;;;;;;22.42;4.53;;;;;;;;;;5088215;28;20040;-83
2023/10/20 14:32:28;;;;;;;17.70;4.13;;;;;;;;;;5081055;28;20134;-81
2023/10/20 14:34:53;;;;;;;20.88;3.75;;;;;;;;;;5075788;28;20952;-82
2023/10/20 14:37:19;;;;;;;2.20;1.38;;;;;;;;;;5078694;28;20048;-82
2023/10/20 14:39:48;;;;;;;22.77;3.00;;;;;;;;;;5072791;28;20036;-81
2023/10/20 14:42:20;;;;;;;18.90;3.08;;;;;;;;;;5082953;28;20031;-83
2023/10/20 14:44:52;;;;;;;8.73;2.15;;;;;;;;;;5067350;28;20028;-81
2023/10/20 14:47:18;;;;;;;12.57;3.25;;;;;;;;;;5088887;28;20088;-80
2023/10/20 14:49:43;;;;;;;18.08;3.35;;;;;;;;;;5086989;28;20032;-76
2023/10/20 14:52:09;;;;;;;11.25;1.98;;;;;;;;;;5087699;28;20035;-79
2023/10/20 14:54:34;;;;;;;12.00;2.40;;;;;;;;;;5089314;28;20482;-84
2023/10/20 14:57:00;;;;;;;3.08;1.85;;;;;;;;;;5089935;28;20060;-73
2023/10/20 14:59:25;;;;;;;1.85;1.75;;;;;;;;;;5089242;28;20110;-81
2023/10/20 15:01:51;;;;;;;19.15;4.35;;;;;;;;;;5088557;28;20458;-82
2023/10/20 15:04:17;;;;;;;5.25;1.55;;;;;;;;;;5068090;28;20075;-79
2023/10/20 15:06:43;;;;;;;34.30;2.47;;;;;;;;;;5087564;28;20506;-81
2023/10/20 15:09:14;;;;;;;5.95;1.25;;;;;;;;;;5086030;28;20051;-81
2023/10/20 15:11:40;;;;;;;9.02;3.20;;;;;;;;;;5064461;28;20513;-79